sensor_id;sensor_type;location;lat;lon;timestamp;pressure;altitude;pressure_sealevel;temperature;humidity
23619;BME280;18207;32.078;34.818;2023-06-14T00:02:13;100178.16;;;30.44;47.54
23619;BME280;18207;32.078;34.818;2023-06-14T00:04:45;100176.53;;;30.43;47.22
23619;BME280;18207;32.078;34.818;2023-06-14T00:07:16;100170.47;;;30.42;47.51
23619;BME280;18207;32.078;34.818;2023-06-14T00:09:46;100163.19;;;30.41;47.59
23619;BME280;18207;32.078;34.818;2023-06-14T00:12:16;100168.47;;;30.39;47.77
23619;BME280;18207;32.078;34.818;2023-06-14T00:14:47;100173.34;;;30.38;47.02
23619;BME280;18207;32.078;34.818;2023-06-14T00:17:17;100166.03;;;30.37;47.16
23619;BME280;18207;32.078;34.818;2023-06-14T00:19:49;100171.72;;;30.37;47.24
23619;BME280;18207;32.078;34.818;2023-06-14T00:22:19;100169.28;;;30.36;47.38
23619;BME280;18207;32.078;34.818;2023-06-14T00:24:49;100168.47;;;30.35;47.91
23619;BME280;18207;32.078;34.818;2023-06-14T00:27:23;100170.53;;;30.35;47.38
23619;BME280;18207;32.078;34.818;2023-06-14T00:29:52;100172.16;;;30.32;47.47
23619;BME280;18207;32.078;34.818;2023-06-14T00:32:22;100168.13;;;30.30;47.90
23619;BME280;18207;32.078;34.818;2023-06-14T00:34:55;100178.66;;;30.29;47.30
23619;BME280;18207;32.078;34.818;2023-06-14T00:37:25;100181.91;;;30.28;47.45
23619;BME280;18207;32.078;34.818;2023-06-14T00:39:55;100187.56;;;30.28;47.78
23619;BME280;18207;32.078;34.818;2023-06-14T00:42:27;100187.56;;;30.28;47.92
23619;BME280;18207;32.078;34.818;2023-06-14T00:44:58;100186.78;;;30.27;48.04
23619;BME280;18207;32.078;34.818;2023-06-14T00:47:28;100182.31;;;30.26;47.73
23619;BME280;18207;32.078;34.818;2023-06-14T00:50:00;100181.50;;;30.26;47.96
23619;BME280;18207;32.078;34.818;2023-06-14T00:52:32;100180.72;;;30.25;47.62
23619;BME280;18207;32.078;34.818;2023-06-14T00:55:03;100183.97;;;30.24;47.90
23619;BME280;18207;32.078;34.818;2023-06-14T00:57:33;100191.69;;;30.20;47.58
23619;BME280;18207;32.078;34.818;2023-06-14T01:00:07;100186.81;;;30.17;47.69
23619;BME280;18207;32.078;34.818;2023-06-14T01:02:39;100183.63;;;30.15;47.63
23619;BME280;18207;32.078;34.818;2023-06-14T01:05:11;100184.84;;;30.14;47.75
23619;BME280;18207;32.078;34.818;2023-06-14T01:08:00;100187.25;;;30.15;47.54
23619;BME280;18207;32.078;34.818;2023-06-14T01:10:46;100192.53;;;30.13;47.75
23619;BME280;18207;32.078;34.818;2023-06-14T01:13:25;100199.41;;;30.12;48.07
23619;BME280;18207;32.078;34.818;2023-06-14T01:15:58;100196.56;;;30.12;48.05
23619;BME280;18207;32.078;34.818;2023-06-14T01:18:29;100188.06;;;30.12;47.89
23619;BME280;18207;32.078;34.818;2023-06-14T01:21:02;100190.09;;;30.12;47.95
23619;BME280;18207;32.078;34.818;2023-06-14T01:23:35;100189.28;;;30.11;47.60
23619;BME280;18207;32.078;34.818;2023-06-14T01:26:05;100183.63;;;30.11;48.19
23619;BME280;18207;32.078;34.818;2023-06-14T01:28:36;100200.63;;;30.11;48.01
23619;BME280;18207;32.078;34.818;2023-06-14T01:31:07;100186.44;;;30.11;47.71
23619;BME280;18207;32.078;34.818;2023-06-14T01:33:40;100186.88;;;30.10;47.49
23619;BME280;18207;32.078;34.818;2023-06-14T01:36:11;100183.63;;;30.11;47.81
23619;BME280;18207;32.078;34.818;2023-06-14T01:38:45;100180.00;;;30.11;48.07
23619;BME280;18207;32.078;34.818;2023-06-14T01:41:17;100188.91;;;30.09;48.02
23619;BME280;18207;32.078;34.818;2023-06-14T01:43:50;100195.38;;;30.10;48.05
23619;BME280;18207;32.078;34.818;2023-06-14T01:46:21;100198.22;;;30.10;48.00
23619;BME280;18207;32.078;34.818;2023-06-14T01:48:52;100203.09;;;30.09;47.89
23619;BME280;18207;32.078;34.818;2023-06-14T01:51:23;100195.81;;;30.08;48.02
23619;BME280;18207;32.078;34.818;2023-06-14T01:53:54;100199.44;;;30.09;47.53
23619;BME280;18207;32.078;34.818;2023-06-14T01:56:25;100200.66;;;30.08;48.24
23619;BME280;18207;32.078;34.818;2023-06-14T01:58:56;100201.06;;;30.06;48.02
23619;BME280;18207;32.078;34.818;2023-06-14T02:01:26;100198.25;;;30.06;48.21
23619;BME280;18207;32.078;34.818;2023-06-14T02:03:56;100205.13;;;30.05;48.24
23619;BME280;18207;32.078;34.818;2023-06-14T02:06:27;100205.13;;;30.05;47.75
23619;BME280;18207;32.078;34.818;2023-06-14T02:09:00;100204.34;;;30.05;48.27
23619;BME280;18207;32.078;34.818;2023-06-14T02:11:31;100212.00;;;30.04;47.88
23619;BME280;18207;32.078;34.818;2023-06-14T02:14:01;100207.56;;;30.03;47.80
23619;BME280;18207;32.078;34.818;2023-06-14T02:16:31;100210.41;;;30.03;48.15
23619;BME280;18207;32.078;34.818;2023-06-14T02:19:04;100209.59;;;30.03;48.19
23619;BME280;18207;32.078;34.818;2023-06-14T02:21:34;100211.63;;;30.02;48.18
23619;BME280;18207;32.078;34.818;2023-06-14T02:24:07;100211.63;;;30.02;48.22
23619;BME280;18207;32.078;34.818;2023-06-14T02:26:38;100206.38;;;30.01;47.89
23619;BME280;18207;32.078;34.818;2023-06-14T02:29:09;100205.97;;;29.99;47.88
23619;BME280;18207;32.078;34.818;2023-06-14T02:31:42;100209.63;;;29.99;47.88
23619;BME280;18207;32.078;34.818;2023-06-14T02:34:15;100214.47;;;29.99;47.83
23619;BME280;18207;32.078;34.818;2023-06-14T02:36:47;100212.84;;;29.98;48.38
23619;BME280;18207;32.078;34.818;2023-06-14T02:39:20;100216.09;;;29.96;47.86
23619;BME280;18207;32.078;34.818;2023-06-14T02:41:51;100210.44;;;29.96;47.86
23619;BME280;18207;32.078;34.818;2023-06-14T02:44:25;100208.81;;;29.95;47.77
23619;BME280;18207;32.078;34.818;2023-06-14T02:46:56;100215.72;;;29.94;48.34
23619;BME280;18207;32.078;34.818;2023-06-14T02:49:27;100217.75;;;29.94;47.95
23619;BME280;18207;32.078;34.818;2023-06-14T02:51:57;100216.91;;;29.93;48.21
23619;BME280;18207;32.078;34.818;2023-06-14T02:54:29;100217.75;;;29.94;48.33
23619;BME280;18207;32.078;34.818;2023-06-14T02:57:00;100209.59;;;29.92;48.34
23619;BME280;18207;32.078;34.818;2023-06-14T02:59:30;100212.44;;;29.92;48.03
23619;BME280;18207;32.078;34.818;2023-06-14T03:02:00;100219.31;;;29.91;48.14
23619;BME280;18207;32.078;34.818;2023-06-14T03:04:31;100210.03;;;29.91;48.21
23619;BME280;18207;32.078;34.818;2023-06-14T03:07:03;100220.16;;;29.92;48.13
23619;BME280;18207;32.078;34.818;2023-06-14T03:09:40;100219.31;;;29.91;48.56
23619;BME280;18207;32.078;34.818;2023-06-14T03:12:10;100221.38;;;29.91;47.97
23619;BME280;18207;32.078;34.818;2023-06-14T03:14:41;100223.41;;;29.90;48.37
23619;BME280;18207;32.078;34.818;2023-06-14T03:17:13;100228.66;;;29.88;48.69
23619;BME280;18207;32.078;34.818;2023-06-14T03:19:45;100229.47;;;29.89;48.26
23619;BME280;18207;32.078;34.818;2023-06-14T03:22:15;100234.34;;;29.88;48.36
23619;BME280;18207;32.078;34.818;2023-06-14T03:24:47;100229.47;;;29.89;48.30
23619;BME280;18207;32.078;34.818;2023-06-14T03:27:18;100233.91;;;29.90;48.58
23619;BME280;18207;32.078;34.818;2023-06-14T03:29:49;100231.91;;;29.90;48.57
23619;BME280;18207;32.078;34.818;2023-06-14T03:32:22;100236.31;;;29.91;48.44
23619;BME280;18207;32.078;34.818;2023-06-14T03:34:52;100237.16;;;29.92;48.16
23619;BME280;18207;32.078;34.818;2023-06-14T03:37:23;100241.59;;;29.93;48.66
23619;BME280;18207;32.078;34.818;2023-06-14T03:39:55;100242.44;;;29.93;48.97
23619;BME280;18207;32.078;34.818;2023-06-14T03:42:26;100248.09;;;29.93;48.31
23619;BME280;18207;32.078;34.818;2023-06-14T03:44:56;100246.88;;;29.94;48.37
23619;BME280;18207;32.078;34.818;2023-06-14T03:47:26;100258.63;;;29.96;48.49
23619;BME280;18207;32.078;34.818;2023-06-14T03:49:56;100264.28;;;30.00;49.00
23619;BME280;18207;32.078;34.818;2023-06-14T03:52:27;100261.44;;;30.00;48.85
23619;BME280;18207;32.078;34.818;2023-06-14T03:54:59;100267.09;;;30.03;48.48
23619;BME280;18207;32.078;34.818;2023-06-14T03:57:32;100272.38;;;30.05;48.50
23619;BME280;18207;32.078;34.818;2023-06-14T04:00:02;100274.78;;;30.06;48.81
23619;BME280;18207;32.078;34.818;2023-06-14T04:02:34;100272.72;;;30.07;48.91
23619;BME280;18207;32.078;34.818;2023-06-14T04:05:05;100267.47;;;30.09;48.97
23619;BME280;18207;32.078;34.818;2023-06-14T04:07:36;100271.13;;;30.09;48.59
23619;BME280;18207;32.078;34.818;2023-06-14T04:10:11;100285.69;;;30.11;49.21
23619;BME280;18207;32.078;34.818;2023-06-14T04:12:42;100288.13;;;30.13;48.73
23619;BME280;18207;32.078;34.818;2023-06-14T04:15:12;100288.13;;;30.13;48.75
23619;BME280;18207;32.078;34.818;2023-06-14T04:17:48;100299.06;;;30.11;49.29
23619;BME280;18207;32.078;34.818;2023-06-14T04:20:19;100296.25;;;30.07;49.32
23619;BME280;18207;32.078;34.818;2023-06-14T04:22:49;100293.41;;;30.07;49.06
23619;BME280;18207;32.078;34.818;2023-06-14T04:25:22;100299.06;;;30.07;48.88
23619;BME280;18207;32.078;34.818;2023-06-14T04:27:56;100296.63;;;30.06;48.63
23619;BME280;18207;32.078;34.818;2023-06-14T04:30:26;100299.88;;;30.08;48.80
23619;BME280;18207;32.078;34.818;2023-06-14T04:32:59;100305.16;;;30.09;48.93
23619;BME280;18207;32.078;34.818;2023-06-14T04:35:33;100305.94;;;30.10;49.27
23619;BME280;18207;32.078;34.818;2023-06-14T04:38:05;100305.53;;;30.11;48.99
23619;BME280;18207;32.078;34.818;2023-06-14T04:40:39;100304.72;;;30.14;49.41
23619;BME280;18207;32.078;34.818;2023-06-14T04:43:11;100313.63;;;30.16;49.34
23619;BME280;18207;32.078;34.818;2023-06-14T04:45:46;100314.00;;;30.18;48.90
23619;BME280;18207;32.078;34.818;2023-06-14T04:48:17;100315.63;;;30.23;49.41
23619;BME280;18207;32.078;34.818;2023-06-14T04:50:49;100320.06;;;30.27;49.36
23619;BME280;18207;32.078;34.818;2023-06-14T04:53:21;100323.66;;;30.31;48.84
23619;BME280;18207;32.078;34.818;2023-06-14T04:55:54;100328.09;;;30.36;49.28
23619;BME280;18207;32.078;34.818;2023-06-14T04:58:25;100333.78;;;30.39;48.92
23619;BME280;18207;32.078;34.818;2023-06-14T05:00:55;100330.91;;;30.42;49.29
23619;BME280;18207;32.078;34.818;2023-06-14T05:03:27;100334.53;;;30.46;49.29
23619;BME280;18207;32.078;34.818;2023-06-14T05:05:58;100337.38;;;30.50;48.83
23619;BME280;18207;32.078;34.818;2023-06-14T05:08:28;100339.41;;;30.53;48.96
23619;BME280;18207;32.078;34.818;2023-06-14T05:11:00;100335.31;;;30.57;49.39
23619;BME280;18207;32.078;34.818;2023-06-14T05:13:30;100343.81;;;30.61;48.93
23619;BME280;18207;32.078;34.818;2023-06-14T05:16:00;100340.94;;;30.64;49.37
23619;BME280;18207;32.078;34.818;2023-06-14T05:18:32;100341.75;;;30.68;49.26
23619;BME280;18207;32.078;34.818;2023-06-14T05:21:04;100333.63;;;30.70;48.70
23619;BME280;18207;32.078;34.818;2023-06-14T05:23:34;100329.16;;;30.73;48.84
23619;BME280;18207;32.078;34.818;2023-06-14T05:26:06;100329.13;;;30.76;49.20
23619;BME280;18207;32.078;34.818;2023-06-14T05:28:36;100332.38;;;30.78;49.03
23619;BME280;18207;32.078;34.818;2023-06-14T05:31:06;100335.19;;;30.82;49.04
23619;BME280;18207;32.078;34.818;2023-06-14T05:33:36;100335.56;;;30.84;48.51
23619;BME280;18207;32.078;34.818;2023-06-14T05:36:07;100335.53;;;30.87;49.18
23619;BME280;18207;32.078;34.818;2023-06-14T05:38:37;100333.09;;;30.89;48.71
23619;BME280;18207;32.078;34.818;2023-06-14T05:41:09;100321.72;;;30.93;48.59
23619;BME280;18207;32.078;34.818;2023-06-14T05:43:40;100330.22;;;30.96;48.82
23619;BME280;18207;32.078;34.818;2023-06-14T05:46:10;100331.81;;;30.97;48.82
23619;BME280;18207;32.078;34.818;2023-06-14T05:48:41;100329.81;;;30.98;48.97
23619;BME280;18207;32.078;34.818;2023-06-14T05:51:11;100334.25;;;30.99;48.85
23619;BME280;18207;32.078;34.818;2023-06-14T05:53:41;100338.31;;;31.01;48.95
23619;BME280;18207;32.078;34.818;2023-06-14T05:56:14;100339.09;;;31.05;48.35
23619;BME280;18207;32.078;34.818;2023-06-14T05:58:46;100338.28;;;31.08;48.12
23619;BME280;18207;32.078;34.818;2023-06-14T06:01:16;100343.91;;;31.12;48.11
23619;BME280;18207;32.078;34.818;2023-06-14T06:03:46;100360.56;;;31.13;48.16
23619;BME280;18207;32.078;34.818;2023-06-14T06:06:17;100337.81;;;31.17;48.47
23619;BME280;18207;32.078;34.818;2023-06-14T06:08:47;100345.91;;;31.18;48.71
23619;BME280;18207;32.078;34.818;2023-06-14T06:11:20;100346.69;;;31.22;48.10
23619;BME280;18207;32.078;34.818;2023-06-14T06:13:50;100349.91;;;31.24;48.59
23619;BME280;18207;32.078;34.818;2023-06-14T06:16:20;100348.28;;;31.27;47.93
23619;BME280;18207;32.078;34.818;2023-06-14T06:18:51;100348.25;;;31.30;48.64
23619;BME280;18207;32.078;34.818;2023-06-14T06:21:21;100358.75;;;31.33;47.99
23619;BME280;18207;32.078;34.818;2023-06-14T06:23:51;100358.34;;;31.34;48.00
23619;BME280;18207;32.078;34.818;2023-06-14T06:26:24;100359.97;;;31.35;48.29
23619;BME280;18207;32.078;34.818;2023-06-14T06:28:55;100354.69;;;31.37;48.43
23619;BME280;18207;32.078;34.818;2023-06-14T06:31:25;100357.88;;;31.39;47.98
23619;BME280;18207;32.078;34.818;2023-06-14T06:33:56;100358.28;;;31.41;48.52
23619;BME280;18207;32.078;34.818;2023-06-14T06:36:26;100362.31;;;31.44;48.18
23619;BME280;18207;32.078;34.818;2023-06-14T06:38:56;100361.50;;;31.47;48.41
23619;BME280;18207;32.078;34.818;2023-06-14T06:41:28;100365.91;;;31.51;48.51
23619;BME280;18207;32.078;34.818;2023-06-14T06:43:59;100358.56;;;31.54;48.54
23619;BME280;18207;32.078;34.818;2023-06-14T06:46:29;100361.00;;;31.59;48.29
23619;BME280;18207;32.078;34.818;2023-06-14T06:49:00;100363.81;;;31.62;48.15
23619;BME280;18207;32.078;34.818;2023-06-14T06:51:30;100363.78;;;31.66;47.95
23619;BME280;18207;32.078;34.818;2023-06-14T06:53:59;100358.88;;;31.70;48.49
23619;BME280;18207;32.078;34.818;2023-06-14T06:56:32;100367.38;;;31.73;47.83
23619;BME280;18207;32.078;34.818;2023-06-14T06:59:02;100365.28;;;31.77;48.11
23619;BME280;18207;32.078;34.818;2023-06-14T07:01:32;100358.38;;;31.82;48.33
23619;BME280;18207;32.078;34.818;2023-06-14T07:04:04;100361.56;;;31.84;48.32
23619;BME280;18207;32.078;34.818;2023-06-14T07:06:34;100357.47;;;31.88;47.92
23619;BME280;18207;32.078;34.818;2023-06-14T07:09:05;100355.41;;;31.92;48.29
23619;BME280;18207;32.078;34.818;2023-06-14T07:11:43;100358.19;;;31.96;48.12
23619;BME280;18207;32.078;34.818;2023-06-14T07:14:13;100352.91;;;31.98;47.63
23619;BME280;18207;32.078;34.818;2023-06-14T07:16:43;100359.78;;;32.00;48.03
23619;BME280;18207;32.078;34.818;2023-06-14T07:19:14;100364.63;;;32.03;47.70
23619;BME280;18207;32.078;34.818;2023-06-14T07:21:45;100353.63;;;32.05;47.78
23619;BME280;18207;32.078;34.818;2023-06-14T07:24:15;100356.47;;;32.09;48.00
23619;BME280;18207;32.078;34.818;2023-06-14T07:26:47;100359.69;;;32.11;47.47
23619;BME280;18207;32.078;34.818;2023-06-14T07:29:18;100352.34;;;32.13;48.21
23619;BME280;18207;32.078;34.818;2023-06-14T07:31:49;100362.88;;;32.16;47.66
23619;BME280;18207;32.078;34.818;2023-06-14T07:34:19;100360.84;;;32.17;47.83
23619;BME280;18207;32.078;34.818;2023-06-14T07:36:49;100355.53;;;32.19;47.75
23619;BME280;18207;32.078;34.818;2023-06-14T07:39:19;100361.63;;;32.21;47.24
23619;BME280;18207;32.078;34.818;2023-06-14T07:41:52;100357.13;;;32.23;47.36
23619;BME280;18207;32.078;34.818;2023-06-14T07:44:21;100357.91;;;32.23;47.26
23619;BME280;18207;32.078;34.818;2023-06-14T07:46:52;100358.28;;;32.25;47.68
23619;BME280;18207;32.078;34.818;2023-06-14T07:49:22;100365.59;;;32.26;47.19
23619;BME280;18207;32.078;34.818;2023-06-14T07:51:52;100368.44;;;32.26;47.76
23619;BME280;18207;32.078;34.818;2023-06-14T07:54:23;100363.16;;;32.28;47.54
23619;BME280;18207;32.078;34.818;2023-06-14T07:56:56;100366.38;;;32.30;47.05
23619;BME280;18207;32.078;34.818;2023-06-14T07:59:28;100365.94;;;32.32;47.71
23619;BME280;18207;32.078;34.818;2023-06-14T08:01:59;100372.03;;;32.34;47.53
23619;BME280;18207;32.078;34.818;2023-06-14T08:04:29;100368.31;;;32.37;47.15
23619;BME280;18207;32.078;34.818;2023-06-14T08:06:59;100378.06;;;32.39;46.90
23619;BME280;18207;32.078;34.818;2023-06-14T08:09:30;100381.25;;;32.41;46.79
23619;BME280;18207;32.078;34.818;2023-06-14T08:12:04;100385.72;;;32.42;47.39
23619;BME280;18207;32.078;34.818;2023-06-14T08:14:35;100383.69;;;32.43;47.47
23619;BME280;18207;32.078;34.818;2023-06-14T08:17:06;100384.09;;;32.45;47.39
23619;BME280;18207;32.078;34.818;2023-06-14T08:19:36;100397.88;;;32.46;46.89
23619;BME280;18207;32.078;34.818;2023-06-14T08:22:06;100396.22;;;32.49;46.62
23619;BME280;18207;32.078;34.818;2023-06-14T08:24:40;100391.69;;;32.51;47.29
23619;BME280;18207;32.078;34.818;2023-06-14T08:27:12;100396.97;;;32.53;46.78
23619;BME280;18207;32.078;34.818;2023-06-14T08:29:42;100394.94;;;32.53;46.48
23619;BME280;18207;32.078;34.818;2023-06-14T08:32:13;100394.53;;;32.55;47.25
23619;BME280;18207;32.078;34.818;2023-06-14T08:34:43;100394.09;;;32.56;47.06
23619;BME280;18207;32.078;34.818;2023-06-14T08:37:31;100408.75;;;32.58;46.66
23619;BME280;18207;32.078;34.818;2023-06-14T08:40:01;100398.97;;;32.59;47.18
23619;BME280;18207;32.078;34.818;2023-06-14T08:42:37;100400.16;;;32.62;46.57
23619;BME280;18207;32.078;34.818;2023-06-14T08:45:08;100409.47;;;32.62;46.89
23619;BME280;18207;32.078;34.818;2023-06-14T08:47:39;100392.41;;;32.62;47.06
23619;BME280;18207;32.078;34.818;2023-06-14T08:50:10;100398.53;;;32.61;47.02
23619;BME280;18207;32.078;34.818;2023-06-14T08:52:56;100398.53;;;32.61;46.95
23619;BME280;18207;32.078;34.818;2023-06-14T08:55:29;100403.00;;;32.62;46.87
23619;BME280;18207;32.078;34.818;2023-06-14T08:58:06;100398.47;;;32.64;46.42
23619;BME280;18207;32.078;34.818;2023-06-14T09:00:37;100410.25;;;32.66;46.85
23619;BME280;18207;32.078;34.818;2023-06-14T09:03:09;100411.88;;;32.67;46.92
23619;BME280;18207;32.078;34.818;2023-06-14T09:05:42;100412.25;;;32.69;46.67
23619;BME280;18207;32.078;34.818;2023-06-14T09:08:14;100403.28;;;32.71;46.27
23619;BME280;18207;32.078;34.818;2023-06-14T09:10:47;100416.28;;;32.72;46.32
23619;BME280;18207;32.078;34.818;2023-06-14T09:13:19;100408.13;;;32.74;46.63
23619;BME280;18207;32.078;34.818;2023-06-14T09:15:49;100413.44;;;32.72;46.14
23619;BME280;18207;32.078;34.818;2023-06-14T09:18:20;100409.38;;;32.73;46.15
23619;BME280;18207;32.078;34.818;2023-06-14T09:20:50;100413.81;;;32.74;46.23
23619;BME280;18207;32.078;34.818;2023-06-14T09:23:21;100413.41;;;32.75;46.55
23619;BME280;18207;32.078;34.818;2023-06-14T09:25:52;100424.00;;;32.75;46.24
23619;BME280;18207;32.078;34.818;2023-06-14T09:28:28;100408.94;;;32.74;45.92
23619;BME280;18207;32.078;34.818;2023-06-14T09:30:58;100412.22;;;32.73;46.46
23619;BME280;18207;32.078;34.818;2023-06-14T09:33:31;100410.97;;;32.74;46.05
23619;BME280;18207;32.078;34.818;2023-06-14T09:36:03;100413.41;;;32.75;45.94
23619;BME280;18207;32.078;34.818;2023-06-14T09:38:35;100411.78;;;32.74;45.76
23619;BME280;18207;32.078;34.818;2023-06-14T09:41:05;100406.09;;;32.74;46.50
23619;BME280;18207;32.078;34.818;2023-06-14T09:43:38;100408.94;;;32.74;46.25
23619;BME280;18207;32.078;34.818;2023-06-14T09:46:09;100406.09;;;32.74;45.90
23619;BME280;18207;32.078;34.818;2023-06-14T09:48:39;100405.28;;;32.74;45.78
23619;BME280;18207;32.078;34.818;2023-06-14T09:51:15;100404.06;;;32.75;46.17
23619;BME280;18207;32.078;34.818;2023-06-14T09:53:50;100403.22;;;32.74;45.83
23619;BME280;18207;32.078;34.818;2023-06-14T09:56:27;100396.75;;;32.74;46.33
23619;BME280;18207;32.078;34.818;2023-06-14T09:59:00;100397.53;;;32.74;45.68
23619;BME280;18207;32.078;34.818;2023-06-14T10:01:42;100404.06;;;32.75;45.83
23619;BME280;18207;32.078;34.818;2023-06-14T10:04:15;100412.59;;;32.75;45.88
23619;BME280;18207;32.078;34.818;2023-06-14T10:06:52;100396.31;;;32.75;46.31
23619;BME280;18207;32.078;34.818;2023-06-14T10:09:23;100399.16;;;32.75;46.08
23619;BME280;18207;32.078;34.818;2023-06-14T10:11:53;100404.84;;;32.75;46.00
23619;BME280;18207;32.078;34.818;2023-06-14T10:14:27;100398.38;;;32.75;46.11
23619;BME280;18207;32.078;34.818;2023-06-14T10:17:06;100396.31;;;32.75;46.04
23619;BME280;18207;32.078;34.818;2023-06-14T10:19:44;100394.69;;;32.74;45.67
23619;BME280;18207;32.078;34.818;2023-06-14T10:22:30;100392.66;;;32.75;45.54
23619;BME280;18207;32.078;34.818;2023-06-14T10:25:07;100398.38;;;32.75;45.48
23619;BME280;18207;32.078;34.818;2023-06-14T10:27:44;100389.38;;;32.76;45.52
23619;BME280;18207;32.078;34.818;2023-06-14T10:30:17;100389.38;;;32.76;45.86
23619;BME280;18207;32.078;34.818;2023-06-14T10:33:07;100384.47;;;32.77;45.88
23619;BME280;18207;32.078;34.818;2023-06-14T10:35:38;100383.69;;;32.76;45.40
23619;BME280;18207;32.078;34.818;2023-06-14T10:38:11;100381.63;;;32.77;45.52
23619;BME280;18207;32.078;34.818;2023-06-14T10:40:43;100383.69;;;32.76;45.91
23619;BME280;18207;32.078;34.818;2023-06-14T10:43:23;100369.91;;;32.75;45.28
23619;BME280;18207;32.078;34.818;2023-06-14T10:46:18;100378.44;;;32.75;45.37
23619;BME280;18207;32.078;34.818;2023-06-14T10:48:58;100375.19;;;32.73;45.50
23619;BME280;18207;32.078;34.818;2023-06-14T10:51:41;100383.31;;;32.74;45.10
23619;BME280;18207;32.078;34.818;2023-06-14T10:54:15;100376.44;;;32.72;45.80
23619;BME280;18207;32.078;34.818;2023-06-14T10:56:47;100379.28;;;32.72;45.81
23619;BME280;18207;32.078;34.818;2023-06-14T10:59:20;100380.50;;;32.71;45.16
23619;BME280;18207;32.078;34.818;2023-06-14T11:02:13;100387.88;;;32.68;44.96
23619;BME280;18207;32.078;34.818;2023-06-14T11:04:52;100388.72;;;32.65;45.51
23619;BME280;18207;32.078;34.818;2023-06-14T11:07:58;100382.63;;;32.63;45.32
23619;BME280;18207;32.078;34.818;2023-06-14T11:10:37;100386.72;;;32.62;45.21
23619;BME280;18207;32.078;34.818;2023-06-14T11:13:09;100385.09;;;32.61;45.63
23619;BME280;18207;32.078;34.818;2023-06-14T11:15:45;100385.91;;;32.62;45.61
23619;BME280;18207;32.078;34.818;2023-06-14T11:18:17;100388.38;;;32.60;45.34
23619;BME280;18207;32.078;34.818;2023-06-14T11:20:47;100386.31;;;32.60;45.48
23619;BME280;18207;32.078;34.818;2023-06-14T11:23:17;100386.31;;;32.60;45.67
23619;BME280;18207;32.078;34.818;2023-06-14T11:25:51;100387.59;;;32.59;45.42
23619;BME280;18207;32.078;34.818;2023-06-14T11:28:22;100391.22;;;32.60;44.95
23619;BME280;18207;32.078;34.818;2023-06-14T11:31:00;100394.88;;;32.60;44.86
23619;BME280;18207;32.078;34.818;2023-06-14T11:33:33;100396.91;;;32.60;44.87
23619;BME280;18207;32.078;34.818;2023-06-14T11:36:05;100404.22;;;32.61;44.92
23619;BME280;18207;32.078;34.818;2023-06-14T11:38:37;100398.53;;;32.61;44.92
23619;BME280;18207;32.078;34.818;2023-06-14T11:41:08;100398.09;;;32.62;45.64
23619;BME280;18207;32.078;34.818;2023-06-14T11:43:40;100400.16;;;32.62;45.38
23619;BME280;18207;32.078;34.818;2023-06-14T11:46:14;100406.22;;;32.64;44.98
23619;BME280;18207;32.078;34.818;2023-06-14T11:48:48;100396.88;;;32.63;45.61
23619;BME280;18207;32.078;34.818;2023-06-14T11:51:19;100399.72;;;32.63;45.52
23619;BME280;18207;32.078;34.818;2023-06-14T11:53:50;100409.09;;;32.64;45.08
23619;BME280;18207;32.078;34.818;2023-06-14T11:56:20;100405.41;;;32.63;45.32
23619;BME280;18207;32.078;34.818;2023-06-14T11:58:52;100403.38;;;32.64;45.04
23619;BME280;18207;32.078;34.818;2023-06-14T12:01:24;100396.88;;;32.63;44.88
23619;BME280;18207;32.078;34.818;2023-06-14T12:03:58;100399.72;;;32.63;44.86
23619;BME280;18207;32.078;34.818;2023-06-14T12:06:30;100400.53;;;32.64;45.39
23619;BME280;18207;32.078;34.818;2023-06-14T12:09:04;100396.88;;;32.63;45.40
23619;BME280;18207;32.078;34.818;2023-06-14T12:11:41;100398.47;;;32.64;45.35
23619;BME280;18207;32.078;34.818;2023-06-14T12:14:12;100398.06;;;32.66;45.30
23619;BME280;18207;32.078;34.818;2023-06-14T12:16:42;100402.16;;;32.65;45.70
23619;BME280;18207;32.078;34.818;2023-06-14T12:19:16;100403.75;;;32.66;45.74
23619;BME280;18207;32.078;34.818;2023-06-14T12:21:47;100402.94;;;32.65;45.21
23619;BME280;18207;32.078;34.818;2023-06-14T12:24:19;100406.59;;;32.66;45.61
23619;BME280;18207;32.078;34.818;2023-06-14T12:26:51;100408.22;;;32.67;45.61
23619;BME280;18207;32.078;34.818;2023-06-14T12:29:22;100402.94;;;32.65;45.56
23619;BME280;18207;32.078;34.818;2023-06-14T12:31:52;100390.38;;;32.63;45.60
23619;BME280;18207;32.078;34.818;2023-06-14T12:34:27;100389.16;;;32.64;45.80
23619;BME280;18207;32.078;34.818;2023-06-14T12:36:58;100401.38;;;32.61;44.88
23619;BME280;18207;32.078;34.818;2023-06-14T12:39:29;100394.88;;;32.60;45.35
23619;BME280;18207;32.078;34.818;2023-06-14T12:41:59;100402.19;;;32.58;44.93
23619;BME280;18207;32.078;34.818;2023-06-14T12:44:32;100390.41;;;32.56;45.66
23619;BME280;18207;32.078;34.818;2023-06-14T12:47:08;100397.38;;;32.55;45.52
23619;BME280;18207;32.078;34.818;2023-06-14T12:49:41;100393.69;;;32.54;45.20
23619;BME280;18207;32.078;34.818;2023-06-14T12:52:11;100386.84;;;32.52;45.00
23619;BME280;18207;32.078;34.818;2023-06-14T12:54:41;100389.69;;;32.52;45.00
23619;BME280;18207;32.078;34.818;2023-06-14T12:57:11;100397.81;;;32.50;44.96
23619;BME280;18207;32.078;34.818;2023-06-14T12:59:41;100392.56;;;32.48;45.23
23619;BME280;18207;32.078;34.818;2023-06-14T13:02:13;100399.09;;;32.45;45.57
23619;BME280;18207;32.078;34.818;2023-06-14T13:04:45;100398.72;;;32.43;44.84
23619;BME280;18207;32.078;34.818;2023-06-14T13:07:16;100394.69;;;32.41;45.16